LFRO 121530Z AUTO 28014KT 260V320 9999 BKN007 BKN011 OVC016 10/09 Q1029 NOSIG

ElémentsDécodage
LFRO Station météo située sur l'aérodrome de LANNION
121530Z émis le 12 du mois à 15h30 UTC
AUTO Bulletin édité par un automate
28014KT vent du 280°, 14 noeuds
260V320 vent de direction variable entre 260° et 320°
9999 visibilité horizontale supérieure à 10 Km
BKN007 nuages morcelés (5/8 à 7/8) à 700 pieds
BKN011 nuages morcelés (5/8 à 7/8) à 1100 pieds
OVC016 couverture nuageuse totale (8/8) à 1600 pieds
10/09 température 10°C, point de rosée 09°C
 soit une humidité relative de 94%
Q1029 la pression au niveau de la mer (QNH) est de 1029 hPa
NOSIG Pas de changement significatif prévu au cours des deux heures suivant l'heure de l'observation